createdAt,value
2022-09-26T00:01:37.807Z,22.35
2022-09-26T00:04:09.332Z,22.52
2022-09-26T00:06:38.850Z,21.33
2022-09-26T00:09:06.934Z,20.95
2022-09-26T00:11:35.504Z,22.38
2022-09-26T00:14:06.388Z,22.80
2022-09-26T00:16:34.374Z,22.08
2022-09-26T00:19:02.814Z,21.05
2022-09-26T00:21:31.321Z,20.67
2022-09-26T00:24:01.935Z,19.05
2022-09-26T00:26:32.044Z,18.55
2022-09-26T00:29:02.143Z,17.00
2022-09-26T00:31:31.975Z,17.30
2022-09-26T00:34:00.987Z,18.20
2022-09-26T00:36:37.540Z,16.40
2022-09-26T00:39:08.944Z,18.60
2022-09-26T00:41:38.144Z,17.08
2022-09-26T00:44:36.016Z,18.52
2022-09-26T00:47:05.001Z,18.08
2022-09-26T00:49:35.565Z,20.42
2022-09-26T00:52:13.974Z,15.65
2022-09-26T00:54:47.209Z,15.60
2022-09-26T00:57:20.181Z,16.58
2022-09-26T00:59:52.708Z,16.67
2022-09-26T01:02:20.745Z,16.13
2022-09-26T01:04:49.415Z,16.42
2022-09-26T01:07:20.608Z,16.73
2022-09-26T01:09:50.446Z,12.73
2022-09-26T01:12:19.838Z,9.93
2022-09-26T01:14:49.657Z,10.20
2022-09-26T01:17:18.093Z,9.70
2022-09-26T01:20:00.786Z,10.13
2022-09-26T01:23:03.084Z,9.50
2022-09-26T01:25:56.299Z,9.32
2022-09-26T01:28:42.383Z,9.57
2022-09-26T01:31:17.579Z,9.63
2022-09-26T01:34:01.114Z,8.30
2022-09-26T01:36:55.873Z,9.35
2022-09-26T01:39:36.601Z,9.57
2022-09-26T01:42:16.678Z,9.95
2022-09-26T01:44:51.135Z,9.38
2022-09-26T01:47:27.575Z,10.20
2022-09-26T01:50:00.215Z,12.77
2022-09-26T01:52:37.022Z,14.63
2022-09-26T01:55:12.283Z,16.00
2022-09-26T01:57:43.750Z,15.10
2022-09-26T02:00:12.885Z,18.17
2022-09-26T02:02:48.293Z,19.08
2022-09-26T02:05:23.852Z,15.57
2022-09-26T02:07:56.955Z,18.83
2022-09-26T02:10:29.784Z,17.48
2022-09-26T02:13:05.823Z,20.85
2022-09-26T02:15:36.578Z,19.40
2022-09-26T02:18:14.597Z,19.08
2022-09-26T02:20:50.413Z,16.08
2022-09-26T02:23:18.840Z,18.25
2022-09-26T02:25:47.264Z,18.67
2022-09-26T02:28:16.133Z,17.35
2022-09-26T02:30:47.161Z,16.90
2022-09-26T02:33:17.259Z,18.60
2022-09-26T02:35:58.167Z,15.63
2022-09-26T02:38:31.180Z,15.90
2022-09-26T02:41:35.080Z,15.20
2022-09-26T02:44:17.944Z,14.82
2022-09-26T02:47:11.704Z,14.10
2022-09-26T02:49:54.651Z,14.02
2022-09-26T02:52:35.266Z,14.63
2022-09-26T02:55:15.151Z,13.23
2022-09-26T02:57:53.350Z,15.52
2022-09-26T03:00:25.105Z,15.73
2022-09-26T03:03:03.169Z,17.67
2022-09-26T03:05:36.023Z,17.02
2022-09-26T03:08:09.910Z,19.63
2022-09-26T03:10:39.257Z,19.27
2022-09-26T03:13:11.482Z,19.70
2022-09-26T03:15:42.392Z,19.58
2022-09-26T03:18:15.939Z,20.48
2022-09-26T03:20:45.233Z,19.65
2022-09-26T03:23:13.210Z,18.00
2022-09-26T03:25:44.525Z,20.50
2022-09-26T03:28:15.440Z,19.40
2022-09-26T03:30:43.539Z,20.48
2022-09-26T03:33:27.447Z,18.08
2022-09-26T03:36:00.294Z,19.48
2022-09-26T03:38:28.571Z,19.67
2022-09-26T03:41:24.364Z,19.33
2022-09-26T03:44:18.420Z,21.02
2022-09-26T03:47:05.196Z,22.42
2022-09-26T03:49:38.891Z,22.08
2022-09-26T03:52:11.749Z,21.90
2022-09-26T03:54:40.789Z,22.83
2022-09-26T03:57:09.872Z,23.50
2022-09-26T03:59:42.971Z,22.65
2022-09-26T04:02:14.122Z,22.85
2022-09-26T04:04:46.169Z,23.27
2022-09-26T04:07:17.479Z,22.38
2022-09-26T04:09:45.586Z,24.92
2022-09-26T04:12:13.722Z,26.13
2022-09-26T04:14:45.120Z,25.05
2022-09-26T04:17:13.837Z,25.20
2022-09-26T04:19:45.090Z,24.58
2022-09-26T04:22:13.059Z,25.85
2022-09-26T04:24:43.024Z,23.70
2022-09-26T04:27:10.947Z,23.05
2022-09-26T04:29:39.688Z,22.67
2022-09-26T04:32:19.571Z,23.95
2022-09-26T04:35:10.438Z,24.45
2022-09-26T04:37:38.383Z,24.63
2022-09-26T04:40:09.409Z,22.33
2022-09-26T04:42:41.508Z,24.65
2022-09-26T04:45:10.671Z,22.08
2022-09-26T04:47:38.594Z,24.05
2022-09-26T04:50:30.104Z,22.70
2022-09-26T04:53:12.296Z,23.38
2022-09-26T04:55:49.374Z,21.63
2022-09-26T04:58:18.078Z,23.05
2022-09-26T05:00:49.793Z,23.10
2022-09-26T05:03:28.669Z,22.88
2022-09-26T05:05:56.935Z,22.13
2022-09-26T05:08:25.318Z,23.30
2022-09-26T05:10:56.163Z,22.60
2022-09-26T05:13:24.277Z,20.40
2022-09-26T05:15:55.253Z,21.52
2022-09-26T05:18:26.254Z,22.92
2022-09-26T05:20:54.985Z,22.90
2022-09-26T05:23:43.708Z,22.80
2022-09-26T05:26:20.428Z,23.38
2022-09-26T05:28:51.353Z,22.92
2022-09-26T05:31:25.366Z,23.73
2022-09-26T05:33:56.586Z,22.30
2022-09-26T05:36:25.881Z,24.58
2022-09-26T05:38:54.644Z,23.15
2022-09-26T05:41:23.306Z,24.05
2022-09-26T05:43:52.150Z,24.67
2022-09-26T05:46:20.150Z,23.65
2022-09-26T05:48:52.013Z,21.80
2022-09-26T05:51:23.632Z,22.48
2022-09-26T05:53:51.633Z,22.10
2022-09-26T05:56:24.648Z,20.95
2022-09-26T05:59:10.777Z,21.05
2022-09-26T06:01:58.706Z,21.02
2022-09-26T06:04:43.021Z,22.50
2022-09-26T06:07:27.158Z,20.52
2022-09-26T06:09:57.748Z,21.42
2022-09-26T06:12:38.157Z,21.33
2022-09-26T06:15:07.015Z,19.40
2022-09-26T06:17:35.897Z,19.65
2022-09-26T06:20:05.099Z,19.65
2022-09-26T06:22:40.224Z,19.38
2022-09-26T06:25:09.503Z,20.50
2022-09-26T06:27:39.696Z,20.88
2022-09-26T06:30:10.573Z,20.13
2022-09-26T06:32:39.355Z,20.25
2022-09-26T06:35:19.753Z,18.23
2022-09-26T06:38:05.763Z,14.57
2022-09-26T06:40:33.879Z,13.05
2022-09-26T06:43:03.703Z,10.68
2022-09-26T06:45:54.383Z,11.63
2022-09-26T06:48:27.829Z,9.48
2022-09-26T06:51:20.129Z,8.45
2022-09-26T06:53:48.234Z,9.82
2022-09-26T06:56:22.297Z,8.13
2022-09-26T06:58:51.604Z,6.65
2022-09-26T07:01:23.965Z,5.47
2022-09-26T07:04:05.278Z,5.00
2022-09-26T07:06:45.296Z,4.63
2022-09-26T07:09:14.428Z,4.03
2022-09-26T07:12:13.692Z,4.10
2022-09-26T07:14:37.966Z,4.10
2022-09-26T07:17:16.972Z,3.42
2022-09-26T07:20:05.630Z,3.45
2022-09-26T07:22:52.101Z,3.42
2022-09-26T07:25:20.271Z,3.65
2022-09-26T07:27:51.830Z,3.60
2022-09-26T07:30:24.906Z,3.22
2022-09-26T07:33:05.897Z,2.83
2022-09-26T07:35:38.123Z,2.88
2022-09-26T07:38:06.954Z,2.40
2022-09-26T07:40:35.435Z,2.30
2022-09-26T07:43:19.241Z,2.25
2022-09-26T07:46:10.257Z,2.20
2022-09-26T07:48:57.162Z,2.47
2022-09-26T07:51:43.671Z,1.75
2022-09-26T07:54:17.997Z,1.85
2022-09-26T07:57:12.428Z,2.00
2022-09-26T08:00:09.213Z,1.85
2022-09-26T08:02:52.915Z,2.00
2022-09-26T08:05:21.449Z,1.60
2022-09-26T08:07:51.439Z,1.80
2022-09-26T08:10:39.354Z,1.63
2022-09-26T08:13:26.128Z,1.60
2022-09-26T08:16:24.045Z,1.75
2022-09-26T08:19:01.623Z,1.73
2022-09-26T08:21:30.243Z,1.75
2022-09-26T08:23:59.566Z,2.20
2022-09-26T08:26:33.287Z,1.85
2022-09-26T08:29:11.316Z,1.73
2022-09-26T08:31:40.465Z,1.83
2022-09-26T08:34:10.835Z,1.88
2022-09-26T08:36:39.126Z,1.63
2022-09-26T08:39:30.053Z,1.92
2022-09-26T08:42:36.339Z,1.90
2022-09-26T08:45:55.454Z,1.75
2022-09-26T08:48:52.750Z,1.77
2022-09-26T08:51:30.508Z,2.00
2022-09-26T08:54:06.716Z,1.98
2022-09-26T08:56:40.491Z,2.13
2022-09-26T08:59:18.025Z,2.00
2022-09-26T09:01:47.404Z,1.45
2022-09-26T09:04:24.771Z,1.40
2022-09-26T09:06:59.814Z,1.27
2022-09-26T09:09:27.815Z,1.50
2022-09-26T09:12:24.844Z,1.85
2022-09-26T09:15:33.398Z,1.45
2022-09-26T09:18:51.624Z,2.92
2022-09-26T09:21:41.990Z,1.58
2022-09-26T09:24:53.106Z,1.23
2022-09-26T09:30:24.718Z,1.50
2022-09-26T09:32:59.609Z,1.23
2022-09-26T09:35:50.685Z,1.20
2022-09-26T09:38:32.724Z,7.32
2022-09-26T09:41:24.966Z,1.48
2022-09-26T09:43:56.765Z,1.63
2022-09-26T09:46:29.192Z,1.10
2022-09-26T09:49:00.618Z,0.93
2022-09-26T09:51:39.790Z,1.50
2022-09-26T09:54:28.930Z,1.38
2022-09-26T09:57:18.273Z,1.17
2022-09-26T10:00:02.400Z,1.35
2022-09-26T10:02:40.262Z,1.20
2022-09-26T10:05:25.314Z,1.33
2022-09-26T10:07:58.167Z,0.85
2022-09-26T10:10:51.355Z,1.20
2022-09-26T10:13:56.001Z,0.85
2022-09-26T10:17:18.860Z,1.25
2022-09-26T10:20:03.248Z,1.30
2022-09-26T10:22:37.538Z,1.08
2022-09-26T10:25:16.939Z,1.27
2022-09-26T10:27:50.543Z,1.20
2022-09-26T10:30:48.041Z,1.00
2022-09-26T10:33:26.356Z,1.63
2022-09-26T10:36:17.786Z,1.50
2022-09-26T10:39:05.653Z,0.95
2022-09-26T10:41:41.099Z,1.02
2022-09-26T10:44:26.107Z,1.35
2022-09-26T10:47:13.167Z,1.83
2022-09-26T10:49:51.111Z,1.17
2022-09-26T10:52:41.785Z,1.02
2022-09-26T10:55:14.400Z,0.85
2022-09-26T10:57:49.773Z,1.33
2022-09-26T11:00:22.024Z,0.70
2022-09-26T11:02:53.126Z,1.08
2022-09-26T11:05:39.658Z,0.98
2022-09-26T11:08:17.469Z,0.80
2022-09-26T11:10:59.885Z,1.25
2022-09-26T11:13:48.010Z,1.20
2022-09-26T11:16:20.222Z,1.25
2022-09-26T11:19:07.879Z,1.50
2022-09-26T11:21:43.097Z,1.10
2022-09-26T11:24:20.804Z,1.15
2022-09-26T11:26:59.646Z,1.05
2022-09-26T11:29:41.347Z,0.93
2022-09-26T11:32:25.423Z,0.90
2022-09-26T11:35:43.285Z,1.13
2022-09-26T11:38:28.729Z,1.40
2022-09-26T11:41:07.248Z,1.08
2022-09-26T11:43:47.711Z,1.00
2022-09-26T11:46:47.506Z,1.00
2022-09-26T11:50:06.297Z,1.30
2022-09-26T11:53:03.911Z,1.00
2022-09-26T11:55:39.145Z,1.00
2022-09-26T11:58:16.577Z,0.95
2022-09-26T12:00:55.906Z,1.00
2022-09-26T12:03:56.593Z,0.82
2022-09-26T12:06:33.573Z,1.65
2022-09-26T12:09:36.167Z,1.30
2022-09-26T12:12:12.488Z,1.85
2022-09-26T12:14:53.861Z,0.90
2022-09-26T12:17:36.211Z,1.00
2022-09-26T12:20:21.545Z,1.08
2022-09-26T12:22:56.806Z,0.70
2022-09-26T12:25:38.784Z,0.90
2022-09-26T12:28:23.332Z,0.93
2022-09-26T12:31:00.977Z,1.08
2022-09-26T12:33:49.411Z,1.10
2022-09-26T12:36:25.278Z,1.23
2022-09-26T12:41:46.763Z,1.00
2022-09-26T12:44:40.677Z,1.00
2022-09-26T12:47:26.323Z,0.95
2022-09-26T12:50:19.030Z,1.27
2022-09-26T12:53:19.318Z,0.73
2022-09-26T12:55:57.548Z,0.77
2022-09-26T12:58:39.645Z,1.20
2022-09-26T13:01:20.116Z,1.05
2022-09-26T13:04:02.712Z,0.70
2022-09-26T13:07:14.390Z,0.88
2022-09-26T13:10:10.420Z,0.98
2022-09-26T13:13:03.073Z,0.90
2022-09-26T13:15:35.999Z,0.88
2022-09-26T13:18:08.981Z,0.80
2022-09-26T13:20:43.371Z,0.80
2022-09-26T13:23:18.057Z,1.05
2022-09-26T13:25:50.878Z,1.13
2022-09-26T13:28:23.319Z,0.60
2022-09-26T13:30:58.086Z,0.80
2022-09-26T13:33:34.397Z,0.90
2022-09-26T13:38:45.088Z,0.70
2022-09-26T13:41:35.018Z,0.80
2022-09-26T13:44:17.803Z,0.77
2022-09-26T13:47:03.582Z,0.85
2022-09-26T13:49:43.144Z,1.00
2022-09-26T13:52:24.529Z,0.80
2022-09-26T13:55:00.473Z,0.85
2022-09-26T13:57:39.001Z,0.90
2022-09-26T14:00:40.529Z,1.10
2022-09-26T14:03:39.247Z,0.88
2022-09-26T14:06:30.811Z,0.90
2022-09-26T14:09:25.701Z,0.80
2022-09-26T14:12:21.935Z,1.02
2022-09-26T14:15:17.520Z,1.40
2022-09-26T14:18:07.542Z,1.00
2022-09-26T14:21:05.486Z,0.95
2022-09-26T14:23:43.445Z,1.00
2022-09-26T14:26:13.594Z,1.05
2022-09-26T14:28:50.463Z,0.95
2022-09-26T14:31:34.329Z,1.05
2022-09-26T14:34:14.470Z,0.80
2022-09-26T14:36:44.689Z,1.20
2022-09-26T14:39:28.424Z,1.25
2022-09-26T14:41:58.848Z,1.33
2022-09-26T14:44:33.675Z,1.00
2022-09-26T14:47:12.424Z,0.90
2022-09-26T14:49:40.912Z,1.02
2022-09-26T14:52:18.925Z,1.20
2022-09-26T14:54:48.088Z,1.45
2022-09-26T14:57:23.126Z,1.23
2022-09-26T14:59:51.017Z,1.77
2022-09-26T15:02:26.930Z,1.23
2022-09-26T15:05:04.264Z,1.27
2022-09-26T15:07:37.077Z,0.93
2022-09-26T15:10:08.973Z,1.00
2022-09-26T15:12:42.372Z,1.42
2022-09-26T15:15:23.062Z,1.30
2022-09-26T15:17:56.530Z,1.30
2022-09-26T15:20:25.468Z,1.27
2022-09-26T15:22:57.437Z,1.35
2022-09-26T15:25:33.382Z,1.45
2022-09-26T15:30:37.371Z,1.52
2022-09-26T15:33:06.096Z,1.67
2022-09-26T15:35:34.393Z,1.20
2022-09-26T15:38:10.602Z,1.38
2022-09-26T15:40:38.902Z,1.55
2022-09-26T15:43:11.679Z,1.40
2022-09-26T15:45:59.361Z,1.33
2022-09-26T15:48:29.630Z,1.65
2022-09-26T15:51:02.717Z,1.52
2022-09-26T15:53:37.828Z,1.77
2022-09-26T15:56:09.627Z,1.60
2022-09-26T15:58:44.712Z,1.65
2022-09-26T16:01:17.219Z,2.23
2022-09-26T16:03:53.983Z,6.07
2022-09-26T16:06:41.824Z,1.52
2022-09-26T16:09:21.321Z,1.73
2022-09-26T16:11:51.606Z,1.48
2022-09-26T16:14:26.682Z,1.50
2022-09-26T16:16:59.769Z,1.90
2022-09-26T16:19:35.068Z,1.85
2022-09-26T16:22:40.178Z,2.10
2022-09-26T16:25:24.982Z,2.20
2022-09-26T16:27:59.395Z,2.28
2022-09-26T16:30:42.117Z,1.80
2022-09-26T16:33:31.877Z,1.92
2022-09-26T16:36:17.206Z,1.90
2022-09-26T16:38:52.127Z,2.10
2022-09-26T16:41:49.314Z,2.28
2022-09-26T16:44:27.451Z,2.40
2022-09-26T16:47:01.806Z,2.90
2022-09-26T16:49:49.104Z,2.17
2022-09-26T16:52:31.081Z,2.05
2022-09-26T16:55:00.797Z,2.45
2022-09-26T16:57:32.275Z,2.58
2022-09-26T17:00:20.334Z,2.38
2022-09-26T17:02:48.469Z,2.40
2022-09-26T17:05:19.135Z,2.08
2022-09-26T17:07:48.070Z,2.00
2022-09-26T17:10:17.027Z,2.00
2022-09-26T17:12:51.440Z,2.20
2022-09-26T17:15:25.171Z,3.17
2022-09-26T17:17:54.244Z,2.17
2022-09-26T17:20:23.617Z,2.38
2022-09-26T17:22:51.950Z,2.60
2022-09-26T17:25:20.032Z,2.47
2022-09-26T17:27:54.589Z,2.58
2022-09-26T17:30:22.555Z,2.72
2022-09-26T17:32:55.536Z,2.83
2022-09-26T17:35:26.219Z,3.03
2022-09-26T17:37:54.795Z,2.50
2022-09-26T17:40:25.060Z,2.55
2022-09-26T17:42:56.588Z,3.22
2022-09-26T17:45:29.196Z,2.90
2022-09-26T17:48:00.306Z,3.17
2022-09-26T17:50:31.181Z,3.28
2022-09-26T17:53:00.870Z,3.22
2022-09-26T17:55:29.342Z,3.42
2022-09-26T17:57:59.767Z,2.95
2022-09-26T18:00:31.841Z,2.97
2022-09-26T18:03:04.399Z,3.60
2022-09-26T18:05:35.503Z,3.20
2022-09-26T18:08:10.229Z,2.80
2022-09-26T18:10:41.778Z,2.70
2022-09-26T18:13:15.404Z,2.70
2022-09-26T18:15:43.344Z,3.38
2022-09-26T18:18:14.523Z,2.75
2022-09-26T18:20:42.598Z,2.55
2022-09-26T18:23:17.383Z,2.22
2022-09-26T18:25:47.130Z,2.20
2022-09-26T18:28:19.236Z,2.00
2022-09-26T18:30:49.456Z,1.83
2022-09-26T18:33:19.229Z,2.55
2022-09-26T18:35:48.824Z,1.98
2022-09-26T18:38:16.749Z,2.10
2022-09-26T18:40:50.102Z,1.90
2022-09-26T18:43:22.522Z,1.77
2022-09-26T18:45:51.168Z,1.63
2022-09-26T18:48:24.241Z,1.35
2022-09-26T18:50:53.421Z,1.67
2022-09-26T18:53:23.230Z,2.00
2022-09-26T18:56:09.097Z,1.90
2022-09-26T18:58:39.237Z,1.70
2022-09-26T19:01:12.226Z,2.28
2022-09-26T19:03:42.260Z,2.05
2022-09-26T19:06:13.633Z,1.90
2022-09-26T19:08:43.989Z,2.25
2022-09-26T19:11:16.577Z,2.40
2022-09-26T19:13:47.438Z,1.92
2022-09-26T19:16:15.943Z,1.55
2022-09-26T19:18:44.068Z,1.70
2022-09-26T19:21:19.917Z,1.98
2022-09-26T19:26:24.895Z,1.77
2022-09-26T19:28:55.026Z,1.65
2022-09-26T19:31:23.159Z,1.60
2022-09-26T19:33:51.444Z,1.77
2022-09-26T19:36:20.695Z,2.20
2022-09-26T19:38:48.886Z,1.42
2022-09-26T19:41:16.862Z,1.75
2022-09-26T19:43:44.810Z,2.00
2022-09-26T19:46:18.352Z,1.83
2022-09-26T19:48:46.541Z,1.95
2022-09-26T19:51:16.863Z,1.98
2022-09-26T19:53:44.841Z,1.92
2022-09-26T19:56:12.791Z,1.95
2022-09-26T19:58:40.711Z,1.85
2022-09-26T20:01:18.394Z,2.17
2022-09-26T20:03:46.558Z,1.98
2022-09-26T20:06:16.137Z,1.92
2022-09-26T20:08:44.082Z,2.05
2022-09-26T20:11:12.922Z,1.70
2022-09-26T20:13:58.254Z,1.90
2022-09-26T20:16:28.697Z,1.90
2022-09-26T20:18:57.550Z,1.58
2022-09-26T20:21:28.384Z,1.95
2022-09-26T20:24:00.326Z,1.73
2022-09-26T20:26:29.900Z,1.52
2022-09-26T20:28:58.154Z,1.70
2022-09-26T20:31:29.479Z,1.73
2022-09-26T20:33:59.221Z,1.77
2022-09-26T20:36:30.050Z,1.67
2022-09-26T20:39:02.922Z,2.05
2022-09-26T20:41:33.895Z,1.95
2022-09-26T20:44:05.766Z,1.42
2022-09-26T20:46:37.345Z,1.75
2022-09-26T20:49:09.780Z,1.50
2022-09-26T20:51:38.463Z,1.70
2022-09-26T20:54:07.172Z,1.23
2022-09-26T20:56:35.376Z,1.40
2022-09-26T20:59:03.239Z,1.63
2022-09-26T21:01:31.241Z,1.52
2022-09-26T21:04:01.759Z,1.50
2022-09-26T21:06:35.190Z,1.52
2022-09-26T21:09:03.521Z,1.38
2022-09-26T21:11:31.524Z,1.40
2022-09-26T21:13:59.438Z,1.48
2022-09-26T21:16:27.770Z,1.38
2022-09-26T21:18:55.709Z,1.17
2022-09-26T21:21:27.228Z,1.73
2022-09-26T21:24:02.359Z,1.58
2022-09-26T21:26:31.295Z,1.23
2022-09-26T21:28:59.559Z,1.42
2022-09-26T21:31:31.392Z,1.48
2022-09-26T21:34:00.603Z,1.30
2022-09-26T21:36:35.014Z,2.15
2022-09-26T21:39:03.830Z,1.83
2022-09-26T21:41:31.960Z,1.88
2022-09-26T21:44:03.530Z,1.70
2022-09-26T21:46:36.774Z,2.22
2022-09-26T21:49:04.703Z,1.75
2022-09-26T21:51:34.239Z,1.92
2022-09-26T21:54:06.247Z,2.38
2022-09-26T21:56:39.998Z,2.50
2022-09-26T21:59:08.529Z,2.70
2022-09-26T22:01:36.521Z,2.22
2022-09-26T22:04:06.004Z,2.10
2022-09-26T22:06:35.622Z,2.22
2022-09-26T22:09:03.721Z,2.30
2022-09-26T22:11:32.396Z,2.67
2022-09-26T22:14:00.273Z,2.67
2022-09-26T22:16:28.462Z,3.13
2022-09-26T22:18:56.368Z,3.10
2022-09-26T22:21:24.273Z,3.05
2022-09-26T22:23:53.745Z,3.17
2022-09-26T22:26:21.658Z,3.92
2022-09-26T22:28:49.993Z,2.80
2022-09-26T22:31:18.331Z,4.07
2022-09-26T22:33:46.331Z,3.25
2022-09-26T22:36:14.358Z,3.20
2022-09-26T22:38:42.305Z,3.75
2022-09-26T22:41:11.819Z,3.40
2022-09-26T22:43:39.709Z,3.63
2022-09-26T22:46:09.627Z,3.28
2022-09-26T22:48:39.873Z,3.92
2022-09-26T22:51:08.227Z,3.33
2022-09-26T22:53:38.669Z,3.47
2022-09-26T22:56:08.296Z,3.05
2022-09-26T22:58:40.222Z,2.72
2022-09-26T23:01:10.715Z,3.13
2022-09-26T23:03:39.010Z,3.10
2022-09-26T23:06:08.239Z,2.78
2022-09-26T23:08:36.802Z,3.10
2022-09-26T23:11:05.961Z,2.88
2022-09-26T23:13:35.187Z,2.63
2022-09-26T23:16:09.161Z,2.85
2022-09-26T23:18:39.375Z,2.40
2022-09-26T23:21:08.724Z,2.88
2022-09-26T23:23:37.167Z,2.60
2022-09-26T23:26:06.840Z,2.28
2022-09-26T23:28:36.031Z,2.65
2022-09-26T23:31:10.300Z,2.63
2022-09-26T23:33:38.883Z,2.50
2022-09-26T23:36:08.300Z,1.95
2022-09-26T23:38:37.634Z,2.10
2022-09-26T23:41:06.083Z,2.28
2022-09-26T23:43:33.924Z,1.90
2022-09-26T23:46:01.899Z,2.03
2022-09-26T23:48:31.189Z,1.92
2022-09-26T23:50:59.199Z,2.05
2022-09-26T23:53:27.312Z,1.60
2022-09-26T23:56:04.207Z,2.00
2022-09-26T23:58:32.510Z,1.75
